createdAt,value
2019-06-07T00:00:50.334Z,1011.70
2019-06-07T00:01:50.314Z,1011.73
2019-06-07T00:02:50.303Z,1011.74
2019-06-07T00:03:50.294Z,1011.79
2019-06-07T00:04:50.305Z,1011.75
2019-06-07T00:05:50.281Z,1011.71
2019-06-07T00:06:50.274Z,1011.74
2019-06-07T00:07:50.248Z,1011.75
2019-06-07T00:08:50.241Z,1011.79
2019-06-07T00:09:50.263Z,1011.83
2019-06-07T00:10:50.226Z,1011.82
2019-06-07T00:11:50.219Z,1011.86
2019-06-07T00:12:50.198Z,1011.85
2019-06-07T00:13:50.187Z,1011.92
2019-06-07T00:14:50.185Z,1011.87
2019-06-07T00:15:50.191Z,1011.88
2019-06-07T00:16:50.153Z,1011.90
2019-06-07T00:17:50.400Z,1011.82
2019-06-07T00:18:50.128Z,1011.81
2019-06-07T00:19:50.492Z,1011.82
2019-06-07T00:20:50.110Z,1011.81
2019-06-07T00:22:15.781Z,1011.80
2019-06-07T00:22:51.103Z,1011.85
2019-06-07T00:23:50.103Z,1011.84
2019-06-07T00:24:50.101Z,1011.87
2019-06-07T00:25:50.057Z,1011.87
2019-06-07T00:26:58.597Z,1011.89
2019-06-07T00:27:51.052Z,1011.91
2019-06-07T00:28:50.032Z,1011.87
2019-06-07T00:29:50.035Z,1011.84
2019-06-07T00:30:51.904Z,1011.81
2019-06-07T00:31:49.988Z,1011.81
2019-06-07T00:32:49.980Z,1011.76
2019-06-07T00:33:49.968Z,1011.76
2019-06-07T00:34:49.977Z,1011.76
2019-06-07T00:35:49.944Z,1011.79
2019-06-07T00:36:49.938Z,1011.78
2019-06-07T00:37:49.927Z,1011.76
2019-06-07T00:38:49.927Z,1011.77
2019-06-07T00:40:12.871Z,1011.74
2019-06-07T00:40:50.887Z,1011.67
2019-06-07T00:41:49.881Z,1011.67
2019-06-07T00:42:49.868Z,1011.67
2019-06-07T00:43:49.860Z,1011.71
2019-06-07T00:44:49.874Z,1011.70
2019-06-07T00:45:49.846Z,1011.72
2019-06-07T00:46:49.846Z,1011.69
2019-06-07T00:47:49.815Z,1011.68
2019-06-07T00:48:49.810Z,1011.64
2019-06-07T00:49:49.842Z,1011.66
2019-06-07T00:50:49.786Z,1011.67
2019-06-07T00:51:51.770Z,1011.68
2019-06-07T00:53:50.748Z,1011.75
2019-06-07T00:54:49.804Z,1011.76
2019-06-07T00:55:49.744Z,1011.77
2019-06-07T00:56:49.720Z,1011.78
2019-06-07T00:57:49.724Z,1011.69
2019-06-07T00:59:09.658Z,1011.63
2019-06-07T00:59:50.711Z,1011.59
2019-06-07T01:00:49.686Z,1011.60
2019-06-07T01:01:49.666Z,1011.65
2019-06-07T01:02:49.657Z,1011.60
2019-06-07T01:03:49.652Z,1011.70
2019-06-07T01:04:49.666Z,1011.69
2019-06-07T01:05:49.648Z,1011.73
2019-06-07T01:06:49.614Z,1011.71
2019-06-07T01:07:49.616Z,1011.71
2019-06-07T01:08:49.600Z,1011.71
2019-06-07T01:09:49.599Z,1011.73
2019-06-07T01:10:53.762Z,1011.78
2019-06-07T01:11:49.556Z,1011.80
2019-06-07T01:12:49.551Z,1011.80
2019-06-07T01:13:49.547Z,1011.83
2019-06-07T01:14:49.538Z,1011.84
2019-06-07T01:15:49.602Z,1011.84
2019-06-07T01:16:57.464Z,1011.84
2019-06-07T01:18:32.990Z,1011.83
2019-06-07T01:18:51.290Z,1011.84
2019-06-07T01:19:49.506Z,1011.85
2019-06-07T01:20:49.474Z,1011.85
2019-06-07T01:21:49.474Z,1011.82
2019-06-07T01:22:49.438Z,1011.82
2019-06-07T01:24:10.970Z,1011.78
2019-06-07T01:24:50.422Z,1011.78
2019-06-07T01:25:49.601Z,1011.80
2019-06-07T01:26:49.410Z,1011.78
2019-06-07T01:27:49.382Z,1011.77
2019-06-07T01:28:49.375Z,1011.77
2019-06-07T01:29:49.389Z,1011.80
2019-06-07T01:30:49.360Z,1011.78
2019-06-07T01:31:49.374Z,1011.76
2019-06-07T01:32:49.348Z,1011.82
2019-06-07T01:33:51.253Z,1011.77
2019-06-07T01:34:49.304Z,1011.83
2019-06-07T01:35:49.294Z,1011.79
2019-06-07T01:36:49.314Z,1011.81
2019-06-07T01:37:49.328Z,1011.80
2019-06-07T01:38:49.280Z,1011.81
2019-06-07T01:39:49.252Z,1011.78
2019-06-07T01:40:49.240Z,1011.77
2019-06-07T01:41:49.278Z,1011.79
2019-06-07T01:42:49.218Z,1011.74
2019-06-07T01:43:49.224Z,1011.78
2019-06-07T01:44:49.198Z,1011.75
2019-06-07T01:45:49.202Z,1011.78
2019-06-07T01:46:49.214Z,1011.76
2019-06-07T01:47:49.194Z,1011.69
2019-06-07T01:48:49.937Z,1011.63
2019-06-07T01:49:49.160Z,1011.59
2019-06-07T01:50:49.134Z,1011.59
2019-06-07T01:51:49.122Z,1011.68
2019-06-07T01:52:49.128Z,1011.68
2019-06-07T01:53:49.114Z,1011.72
2019-06-07T01:54:57.508Z,1011.61
2019-06-07T01:55:50.078Z,1011.60
2019-06-07T01:56:49.070Z,1011.58
2019-06-07T01:57:49.098Z,1011.62
2019-06-07T01:58:49.048Z,1011.59
2019-06-07T01:59:58.062Z,1011.69
2019-06-07T02:00:49.034Z,1011.68
2019-06-07T02:01:58.092Z,1011.73
2019-06-07T02:02:49.047Z,1011.80
2019-06-07T02:03:48.991Z,1011.82
2019-06-07T02:04:48.986Z,1011.90
2019-06-07T02:05:49.007Z,1011.97
2019-06-07T02:06:49.024Z,1011.92
2019-06-07T02:07:48.966Z,1011.97
2019-06-07T02:08:48.940Z,1012.00
2019-06-07T02:09:48.930Z,1012.03
2019-06-07T02:10:48.959Z,1012.03
2019-06-07T02:11:48.908Z,1012.05
2019-06-07T02:12:48.908Z,1011.97
2019-06-07T02:13:48.923Z,1011.94
2019-06-07T02:14:48.879Z,1011.94
2019-06-07T02:15:48.883Z,1011.88
2019-06-07T02:16:48.866Z,1011.88
2019-06-07T02:17:48.844Z,1011.85
2019-06-07T02:19:01.311Z,1011.91
2019-06-07T02:19:49.828Z,1011.90
2019-06-07T02:20:48.855Z,1011.97
2019-06-07T02:21:48.794Z,1011.98
2019-06-07T02:22:49.597Z,1011.94
2019-06-07T02:23:48.780Z,1011.96
2019-06-07T02:25:34.116Z,1012.02
2019-06-07T02:25:50.733Z,1012.02
2019-06-07T02:26:48.744Z,1012.07
2019-06-07T02:27:48.744Z,1012.04
2019-06-07T02:28:48.724Z,1012.09
2019-06-07T02:29:48.726Z,1012.04
2019-06-07T02:30:59.401Z,1012.01
2019-06-07T02:31:49.688Z,1012.01
2019-06-07T02:32:48.684Z,1011.98
2019-06-07T02:33:48.678Z,1012.00
2019-06-07T02:34:48.712Z,1012.00
2019-06-07T02:35:48.662Z,1012.02
2019-06-07T02:36:48.651Z,1011.90
2019-06-07T02:37:48.628Z,1011.96
2019-06-07T02:38:48.620Z,1011.91
2019-06-07T02:39:48.628Z,1011.85
2019-06-07T02:40:48.611Z,1011.87
2019-06-07T02:41:48.592Z,1011.91
2019-06-07T02:42:48.611Z,1011.92
2019-06-07T02:43:48.618Z,1011.91
2019-06-07T02:44:48.551Z,1011.90
2019-06-07T02:45:48.568Z,1011.89
2019-06-07T02:46:50.028Z,1011.90
2019-06-07T02:47:48.536Z,1011.92
2019-06-07T02:48:48.509Z,1011.93
2019-06-07T02:49:48.498Z,1011.95
2019-06-07T02:50:48.506Z,1011.94
2019-06-07T02:51:48.474Z,1011.94
2019-06-07T02:52:49.067Z,1011.93
2019-06-07T02:53:48.504Z,1011.95
2019-06-07T02:54:48.518Z,1011.96
2019-06-07T02:56:34.359Z,1011.97
2019-06-07T02:56:57.765Z,1011.96
2019-06-07T02:57:49.429Z,1011.99
2019-06-07T02:58:48.417Z,1011.99
2019-06-07T03:00:06.309Z,1011.95
2019-06-07T03:01:09.168Z,1011.97
2019-06-07T03:01:49.377Z,1011.91
2019-06-07T03:02:48.381Z,1011.90
2019-06-07T03:03:48.354Z,1011.91
2019-06-07T03:04:48.347Z,1011.95
2019-06-07T03:05:48.361Z,1012.01
2019-06-07T03:06:48.321Z,1012.01
2019-06-07T03:07:48.320Z,1012.02
2019-06-07T03:08:48.292Z,1012.09
2019-06-07T03:09:48.288Z,1012.04
2019-06-07T03:10:48.298Z,1012.09
2019-06-07T03:11:48.260Z,1012.09
2019-06-07T03:12:48.292Z,1012.11
2019-06-07T03:13:48.238Z,1012.14
2019-06-07T03:14:48.239Z,1012.20
2019-06-07T03:15:50.337Z,1012.23
2019-06-07T03:16:48.225Z,1012.27
2019-06-07T03:17:48.218Z,1012.23
2019-06-07T03:18:48.187Z,1012.23
2019-06-07T03:19:48.191Z,1012.22
2019-06-07T03:21:04.586Z,1012.22
2019-06-07T03:21:49.182Z,1012.23
2019-06-07T03:22:48.145Z,1012.24
2019-06-07T03:23:48.130Z,1012.26
2019-06-07T03:24:48.125Z,1012.24
2019-06-07T03:25:48.137Z,1012.21
2019-06-07T03:27:31.732Z,1012.15
2019-06-07T03:27:50.173Z,1012.14
2019-06-07T03:28:48.087Z,1012.13
2019-06-07T03:29:48.073Z,1012.20
2019-06-07T03:31:01.501Z,1012.21
2019-06-07T03:31:49.063Z,1012.17
2019-06-07T03:32:48.696Z,1012.22
2019-06-07T03:33:48.036Z,1012.17
2019-06-07T03:34:48.021Z,1012.19
2019-06-07T03:35:48.022Z,1012.22
2019-06-07T03:36:47.988Z,1012.25
2019-06-07T03:37:47.981Z,1012.30
2019-06-07T03:38:47.980Z,1012.29
2019-06-07T03:39:47.975Z,1012.29
2019-06-07T03:40:47.988Z,1012.27
2019-06-07T03:42:05.126Z,1012.28
2019-06-07T03:42:48.927Z,1012.27
2019-06-07T03:43:47.926Z,1012.31
2019-06-07T03:44:47.912Z,1012.33
2019-06-07T03:45:47.930Z,1012.36
2019-06-07T03:46:47.913Z,1012.41
2019-06-07T03:47:47.879Z,1012.49
2019-06-07T03:48:47.873Z,1012.47
2019-06-07T03:49:47.859Z,1012.53
2019-06-07T03:50:47.853Z,1012.49
2019-06-07T03:51:47.855Z,1012.47
2019-06-07T03:52:47.833Z,1012.51
2019-06-07T03:53:47.813Z,1012.57
2019-06-07T03:54:47.802Z,1012.55
2019-06-07T03:55:47.818Z,1012.57
2019-06-07T03:56:47.866Z,1012.55
2019-06-07T03:58:30.186Z,1012.56
2019-06-07T03:58:50.436Z,1012.55
2019-06-07T03:59:47.753Z,1012.56
2019-06-07T04:00:47.738Z,1012.55
2019-06-07T04:01:47.745Z,1012.54
2019-06-07T04:02:47.741Z,1012.53
2019-06-07T04:03:51.830Z,1012.46
2019-06-07T04:04:47.693Z,1012.52
2019-06-07T04:05:47.693Z,1012.52
2019-06-07T04:06:47.668Z,1012.53
2019-06-07T04:07:47.687Z,1012.53
2019-06-07T04:08:47.665Z,1012.55
2019-06-07T04:09:47.671Z,1012.51
2019-06-07T04:10:59.025Z,1012.48
2019-06-07T04:11:48.619Z,1012.52
2019-06-07T04:12:47.635Z,1012.52
2019-06-07T04:13:47.604Z,1012.56
2019-06-07T04:14:47.588Z,1012.59
2019-06-07T04:15:47.780Z,1012.58
2019-06-07T04:16:47.566Z,1012.61
2019-06-07T04:18:01.342Z,1012.62
2019-06-07T04:18:48.569Z,1012.61
2019-06-07T04:19:47.577Z,1012.63
2019-06-07T04:20:47.598Z,1012.62
2019-06-07T04:21:47.513Z,1012.58
2019-06-07T04:22:47.507Z,1012.57
2019-06-07T04:23:47.511Z,1012.58
2019-06-07T04:24:47.481Z,1012.55
2019-06-07T04:25:47.503Z,1012.54
2019-06-07T04:26:47.466Z,1012.54
2019-06-07T04:27:47.446Z,1012.58
2019-06-07T04:29:31.657Z,1012.62
2019-06-07T04:30:06.519Z,1012.66
2019-06-07T04:30:48.415Z,1012.71
2019-06-07T04:31:47.425Z,1012.74
2019-06-07T04:32:47.392Z,1012.65
2019-06-07T04:33:47.453Z,1012.72
2019-06-07T04:34:47.375Z,1012.67
2019-06-07T04:35:47.397Z,1012.65
2019-06-07T04:36:58.779Z,1012.66
2019-06-07T04:37:48.341Z,1012.62
2019-06-07T04:38:47.329Z,1012.66
2019-06-07T04:39:47.321Z,1012.60
2019-06-07T04:40:47.333Z,1012.58
2019-06-07T04:41:47.303Z,1012.53
2019-06-07T04:42:47.289Z,1012.52
2019-06-07T04:43:47.279Z,1012.48
2019-06-07T04:44:47.293Z,1012.51
2019-06-07T04:45:51.156Z,1012.48
2019-06-07T04:46:47.255Z,1012.47
2019-06-07T04:47:47.250Z,1012.44
2019-06-07T04:48:47.235Z,1012.45
2019-06-07T04:49:47.243Z,1012.49
2019-06-07T04:50:47.198Z,1012.50
2019-06-07T04:51:47.198Z,1012.47
2019-06-07T04:52:47.216Z,1012.51
2019-06-07T04:53:47.171Z,1012.50
2019-06-07T04:54:47.185Z,1012.55
2019-06-07T04:55:47.156Z,1012.55
2019-06-07T04:56:47.135Z,1012.50
2019-06-07T04:57:47.160Z,1012.46
2019-06-07T04:58:47.137Z,1012.43
2019-06-07T05:00:12.057Z,1012.43
2019-06-07T05:00:54.199Z,1012.45
2019-06-07T05:01:48.085Z,1012.46
2019-06-07T05:02:47.091Z,1012.46
2019-06-07T05:03:47.069Z,1012.48
2019-06-07T05:04:47.051Z,1012.47
2019-06-07T05:05:47.071Z,1012.41
2019-06-07T05:06:47.055Z,1012.37
2019-06-07T05:07:47.017Z,1012.40
2019-06-07T05:08:47.007Z,1012.41
2019-06-07T05:09:46.994Z,1012.36
2019-06-07T05:11:55.515Z,1012.45
2019-06-07T05:12:55.499Z,1012.45
2019-06-07T05:13:55.613Z,1012.48
2019-06-07T05:16:04.275Z,1012.50
2019-06-07T05:17:03.966Z,1012.52
2019-06-07T05:18:03.957Z,1012.49
2019-06-07T05:19:03.944Z,1012.55
2019-06-07T05:20:03.949Z,1012.50
2019-06-07T05:21:03.940Z,1012.51
2019-06-07T05:22:05.241Z,1012.56
2019-06-07T05:23:03.909Z,1012.53
2019-06-07T05:24:09.590Z,1012.50
2019-06-07T05:25:04.879Z,1012.54
2019-06-07T05:26:03.890Z,1012.56
2019-06-07T05:27:03.857Z,1012.57
2019-06-07T05:28:03.841Z,1012.59
2019-06-07T05:29:03.831Z,1012.62
2019-06-07T05:30:50.505Z,1012.61
2019-06-07T05:31:07.671Z,1012.57
2019-06-07T05:32:03.800Z,1012.61
2019-06-07T05:33:03.815Z,1012.57
2019-06-07T05:34:03.778Z,1012.56
2019-06-07T05:35:03.866Z,1012.54
2019-06-07T05:36:03.788Z,1012.60
2019-06-07T05:37:11.568Z,1012.63
2019-06-07T05:38:04.737Z,1012.60
2019-06-07T05:39:03.737Z,1012.64
2019-06-07T05:40:03.713Z,1012.62
2019-06-07T05:41:03.713Z,1012.61
2019-06-07T05:42:03.715Z,1012.66
2019-06-07T05:43:03.689Z,1012.59
2019-06-07T05:44:12.511Z,1012.58
2019-06-07T05:45:04.661Z,1012.54
2019-06-07T05:46:03.652Z,1012.52
2019-06-07T05:47:03.661Z,1012.60
2019-06-07T05:48:03.659Z,1012.53
2019-06-07T05:49:03.612Z,1012.54
2019-06-07T05:50:03.663Z,1012.58
2019-06-07T05:51:03.599Z,1012.54
2019-06-07T05:52:03.597Z,1012.53
2019-06-07T05:53:03.574Z,1012.56
2019-06-07T05:54:03.575Z,1012.55
2019-06-07T05:55:03.548Z,1012.57
2019-06-07T05:56:03.750Z,1012.63
2019-06-07T05:57:03.549Z,1012.64
2019-06-07T05:58:03.550Z,1012.62
2019-06-07T05:59:03.508Z,1012.61
2019-06-07T06:00:03.512Z,1012.64
2019-06-07T06:01:41.666Z,1012.64
2019-06-07T06:02:21.694Z,1012.61
2019-06-07T06:03:06.073Z,1012.64
2019-06-07T06:04:03.450Z,1012.65
2019-06-07T06:05:03.508Z,1012.64
2019-06-07T06:06:03.537Z,1012.68
2019-06-07T06:07:03.526Z,1012.63
2019-06-07T06:08:03.408Z,1012.64
2019-06-07T06:09:13.340Z,1012.67
2019-06-07T06:10:04.405Z,1012.69
2019-06-07T06:11:03.385Z,1012.69
2019-06-07T06:12:03.391Z,1012.67
2019-06-07T06:13:03.369Z,1012.68
2019-06-07T06:14:12.507Z,1012.67
2019-06-07T06:15:12.533Z,1012.71
2019-06-07T06:16:03.333Z,1012.67
2019-06-07T06:17:03.327Z,1012.71
2019-06-07T06:18:03.323Z,1012.70
2019-06-07T06:19:03.306Z,1012.70
2019-06-07T06:20:03.339Z,1012.67
2019-06-07T06:21:16.306Z,1012.68
2019-06-07T06:22:04.283Z,1012.69
2019-06-07T06:23:03.338Z,1012.70
2019-06-07T06:24:03.242Z,1012.68
2019-06-07T06:25:33.812Z,1012.67
2019-06-07T06:26:04.226Z,1012.68
2019-06-07T06:27:18.891Z,1012.69
2019-06-07T06:28:11.618Z,1012.66
2019-06-07T06:29:04.184Z,1012.66
2019-06-07T06:30:03.179Z,1012.67
2019-06-07T06:31:03.177Z,1012.65
2019-06-07T06:32:40.717Z,1012.68
2019-06-07T06:33:04.155Z,1012.66
2019-06-07T06:34:03.138Z,1012.72
2019-06-07T06:35:03.117Z,1012.70
2019-06-07T06:36:03.115Z,1012.71
2019-06-07T06:37:03.130Z,1012.72
2019-06-07T06:38:03.085Z,1012.71
2019-06-07T06:39:03.075Z,1012.71
2019-06-07T06:40:03.073Z,1012.69
2019-06-07T06:41:15.149Z,1012.66
2019-06-07T06:42:04.081Z,1012.65
2019-06-07T06:43:03.063Z,1012.69
2019-06-07T06:44:03.085Z,1012.68
2019-06-07T06:45:03.096Z,1012.69
2019-06-07T06:46:03.034Z,1012.66
2019-06-07T06:47:03.024Z,1012.66
2019-06-07T06:48:03.002Z,1012.72
2019-06-07T06:49:02.974Z,1012.73
2019-06-07T06:50:02.978Z,1012.68
2019-06-07T06:51:02.953Z,1012.67
2019-06-07T06:52:02.955Z,1012.69
2019-06-07T06:53:02.958Z,1012.67
2019-06-07T06:54:02.926Z,1012.61
2019-06-07T06:55:02.904Z,1012.64
2019-06-07T06:56:02.903Z,1012.64
2019-06-07T06:57:19.096Z,1012.60
2019-06-07T06:58:03.887Z,1012.60
2019-06-07T07:00:03.855Z,1012.67
2019-06-07T07:01:06.819Z,1012.59
2019-06-07T07:02:02.848Z,1012.61
2019-06-07T07:03:47.776Z,1012.59
2019-06-07T07:04:12.336Z,1012.65
2019-06-07T07:05:03.810Z,1012.62
2019-06-07T07:06:24.591Z,1012.61
2019-06-07T07:07:03.777Z,1012.62
2019-06-07T07:08:02.823Z,1012.64
2019-06-07T07:09:02.769Z,1012.60
2019-06-07T07:10:03.136Z,1012.59
2019-06-07T07:11:02.742Z,1012.56
2019-06-07T07:12:12.185Z,1012.59
2019-06-07T07:13:03.717Z,1012.61
2019-06-07T07:14:02.699Z,1012.60
2019-06-07T07:15:02.706Z,1012.66
2019-06-07T07:16:02.694Z,1012.63
2019-06-07T07:17:02.690Z,1012.60
2019-06-07T07:18:08.472Z,1012.65
2019-06-07T07:19:03.678Z,1012.60
2019-06-07T07:20:02.692Z,1012.63
2019-06-07T07:21:02.654Z,1012.62
2019-06-07T07:22:02.646Z,1012.59
2019-06-07T07:23:02.629Z,1012.63
2019-06-07T07:24:20.414Z,1012.63
2019-06-07T07:25:03.603Z,1012.64
2019-06-07T07:26:02.580Z,1012.62
2019-06-07T07:27:02.588Z,1012.58
2019-06-07T07:28:02.555Z,1012.59
2019-06-07T07:29:02.559Z,1012.58
2019-06-07T07:30:35.352Z,1012.59
2019-06-07T07:31:03.523Z,1012.58
2019-06-07T07:32:02.532Z,1012.57
2019-06-07T07:33:03.914Z,1012.59
2019-06-07T07:35:03.481Z,1012.60
2019-06-07T07:36:18.943Z,1012.60
2019-06-07T07:37:03.836Z,1012.66
2019-06-07T07:38:02.453Z,1012.67
2019-06-07T07:39:05.253Z,1012.62
2019-06-07T07:40:48.045Z,1012.65
2019-06-07T07:41:14.671Z,1012.60
2019-06-07T07:42:20.088Z,1012.65
2019-06-07T07:43:03.411Z,1012.65
2019-06-07T07:44:07.076Z,1012.67
2019-06-07T07:45:03.376Z,1012.67
2019-06-07T07:46:03.696Z,1012.71
2019-06-07T07:47:03.372Z,1012.65
2019-06-07T07:48:15.834Z,1012.65
2019-06-07T07:49:03.327Z,1012.63
2019-06-07T07:50:02.392Z,1012.62
2019-06-07T07:51:03.340Z,1012.62
2019-06-07T07:52:02.346Z,1012.60
2019-06-07T07:53:02.282Z,1012.63
2019-06-07T07:54:10.723Z,1012.61
2019-06-07T07:55:03.263Z,1012.54
2019-06-07T07:56:02.545Z,1012.52
2019-06-07T07:57:02.258Z,1012.54
2019-06-07T07:58:02.243Z,1012.50
2019-06-07T07:59:02.845Z,1012.55
2019-06-07T08:00:36.802Z,1012.50
2019-06-07T08:01:10.368Z,1012.47
2019-06-07T08:02:03.473Z,1012.54
2019-06-07T08:03:04.542Z,1012.52
2019-06-07T08:04:02.178Z,1012.53
2019-06-07T08:05:28.748Z,1012.54
2019-06-07T08:06:03.168Z,1012.55
2019-06-07T08:07:02.162Z,1012.54
2019-06-07T08:08:05.338Z,1012.54
2019-06-07T08:09:03.123Z,1012.47
2019-06-07T08:10:04.149Z,1012.56
2019-06-07T08:11:02.587Z,1012.50
2019-06-07T08:12:02.690Z,1012.52
2019-06-07T08:13:23.576Z,1012.51
2019-06-07T08:14:03.061Z,1012.54
2019-06-07T08:15:03.506Z,1012.57
2019-06-07T08:16:10.538Z,1012.57
2019-06-07T08:17:03.060Z,1012.56
2019-06-07T08:18:04.535Z,1012.56
2019-06-07T08:19:03.987Z,1012.58
2019-06-07T08:20:02.853Z,1012.57
2019-06-07T08:21:21.156Z,1012.60
2019-06-07T08:22:03.001Z,1012.59
2019-06-07T08:23:01.979Z,1012.57
2019-06-07T08:24:05.191Z,1012.59
2019-06-07T08:25:04.391Z,1012.59
2019-06-07T08:26:01.931Z,1012.63
2019-06-07T08:27:24.573Z,1012.63
2019-06-07T08:28:02.914Z,1012.65
2019-06-07T08:29:03.007Z,1012.63
2019-06-07T08:30:34.624Z,1012.66
2019-06-07T08:31:06.774Z,1012.60
2019-06-07T08:32:01.877Z,1012.71
2019-06-07T08:33:24.509Z,1012.68
2019-06-07T08:34:02.866Z,1012.63
2019-06-07T08:36:03.274Z,1012.61
2019-06-07T08:36:15.114Z,1012.64
2019-06-07T08:37:02.829Z,1012.61
2019-06-07T08:38:25.116Z,1012.60
2019-06-07T08:39:07.243Z,1012.60
2019-06-07T08:40:02.149Z,1012.56
2019-06-07T08:41:10.942Z,1012.54
2019-06-07T08:42:15.476Z,1012.57
2019-06-07T08:43:19.327Z,1012.55
2019-06-07T08:44:22.376Z,1012.54
2019-06-07T08:45:05.491Z,1012.53
2019-06-07T08:46:07.077Z,1012.55
2019-06-07T08:47:19.481Z,1012.56
2019-06-07T08:48:09.517Z,1012.55
2019-06-07T08:49:04.823Z,1012.49
2019-06-07T08:50:07.458Z,1012.54
2019-06-07T08:51:08.319Z,1012.54
2019-06-07T08:52:09.844Z,1012.58
2019-06-07T08:53:11.427Z,1012.61
2019-06-07T08:54:21.085Z,1012.62
2019-06-07T08:55:04.935Z,1012.64
2019-06-07T08:56:09.942Z,1012.56
2019-06-07T08:57:19.688Z,1012.57
2019-06-07T08:58:08.183Z,1012.64
2019-06-07T08:59:10.857Z,1012.56
2019-06-07T09:00:15.993Z,1012.61
2019-06-07T09:01:07.713Z,1012.59
2019-06-07T09:02:14.558Z,1012.57
2019-06-07T09:03:05.180Z,1012.59
2019-06-07T09:04:07.620Z,1012.62
2019-06-07T09:05:11.181Z,1012.58
2019-06-07T09:06:16.428Z,1012.57
2019-06-07T09:07:17.768Z,1012.57
2019-06-07T09:08:23.651Z,1012.61
2019-06-07T09:09:05.125Z,1012.57
2019-06-07T09:10:09.329Z,1012.54
2019-06-07T09:11:10.173Z,1012.53
2019-06-07T09:12:08.124Z,1012.59
2019-06-07T09:13:07.622Z,1012.55
2019-06-07T09:14:08.667Z,1012.59
2019-06-07T09:15:19.917Z,1012.55
2019-06-07T09:16:06.783Z,1012.53
2019-06-07T09:17:08.787Z,1012.53
2019-06-07T09:18:37.951Z,1012.53
2019-06-07T09:19:06.698Z,1012.51
2019-06-07T09:20:10.409Z,1012.52
2019-06-07T09:21:07.678Z,1012.46
2019-06-07T09:22:08.235Z,1012.46
2019-06-07T09:23:11.440Z,1012.44
2019-06-07T09:24:07.044Z,1012.40
2019-06-07T09:25:10.622Z,1012.38
2019-06-07T09:26:12.471Z,1012.45
2019-06-07T09:27:05.374Z,1012.42
2019-06-07T09:28:10.229Z,1012.37
2019-06-07T09:29:07.086Z,1012.50
2019-06-07T09:30:07.620Z,1012.39
2019-06-07T09:31:08.837Z,1012.40
2019-06-07T09:32:05.966Z,1012.39
2019-06-07T09:33:05.751Z,1012.39
2019-06-07T09:34:07.900Z,1012.43
2019-06-07T09:35:08.100Z,1012.36
2019-06-07T09:36:07.954Z,1012.42
2019-06-07T09:37:24.560Z,1012.35
2019-06-07T09:38:10.972Z,1012.38
2019-06-07T09:39:07.615Z,1012.40
2019-06-07T09:40:15.529Z,1012.35
2019-06-07T09:41:04.543Z,1012.43
2019-06-07T09:42:04.280Z,1012.38
2019-06-07T09:43:47.985Z,1012.42
2019-06-07T09:44:19.305Z,1012.41
2019-06-07T09:45:08.191Z,1012.42
2019-06-07T09:46:11.084Z,1012.44
2019-06-07T09:47:22.298Z,1012.45
2019-06-07T09:48:09.332Z,1012.42
2019-06-07T09:49:14.198Z,1012.44
2019-06-07T09:50:08.387Z,1012.44
2019-06-07T09:51:09.538Z,1012.45
2019-06-07T09:52:03.606Z,1012.45
2019-06-07T09:53:10.628Z,1012.46
2019-06-07T09:54:06.450Z,1012.40
2019-06-07T09:55:09.357Z,1012.39
2019-06-07T09:56:05.739Z,1012.38
2019-06-07T09:57:04.255Z,1012.39
2019-06-07T09:58:30.279Z,1012.41
2019-06-07T09:59:03.739Z,1012.43
2019-06-07T10:00:10.367Z,1012.42
2019-06-07T10:01:06.121Z,1012.41
2019-06-07T10:02:05.204Z,1012.42
2019-06-07T10:03:08.874Z,1012.40
2019-06-07T10:04:07.387Z,1012.39
2019-06-07T10:05:04.573Z,1012.42
2019-06-07T10:06:07.607Z,1012.40
2019-06-07T10:07:09.084Z,1012.43
2019-06-07T10:08:16.140Z,1012.34
2019-06-07T10:10:04.777Z,1012.40
2019-06-07T10:10:24.721Z,1012.39
2019-06-07T10:11:02.616Z,1012.33
2019-06-07T10:12:02.199Z,1012.37
2019-06-07T10:13:01.672Z,1012.31
2019-06-07T10:14:00.786Z,1012.31
2019-06-07T10:15:00.786Z,1012.30
2019-06-07T10:16:00.924Z,1012.27
2019-06-07T10:17:00.930Z,1012.28
2019-06-07T10:18:00.812Z,1012.23
2019-06-07T10:19:01.592Z,1012.31
2019-06-07T10:20:02.585Z,1012.31
2019-06-07T10:21:01.437Z,1012.26
2019-06-07T10:22:01.372Z,1012.28
2019-06-07T10:23:01.617Z,1012.28
2019-06-07T10:24:01.250Z,1012.24
2019-06-07T10:25:02.092Z,1012.24
2019-06-07T10:26:01.580Z,1012.25
2019-06-07T10:27:01.717Z,1012.19
2019-06-07T10:28:01.818Z,1012.15
2019-06-07T10:29:01.857Z,1012.17
2019-06-07T10:30:02.212Z,1012.15
2019-06-07T10:31:01.966Z,1012.16
2019-06-07T10:32:02.181Z,1012.15
2019-06-07T10:33:02.105Z,1012.15
2019-06-07T10:34:00.587Z,1012.11
2019-06-07T10:35:00.612Z,1012.14
2019-06-07T10:36:00.551Z,1012.13
2019-06-07T10:37:03.348Z,1012.16
2019-06-07T10:38:02.478Z,1012.17
2019-06-07T10:39:00.767Z,1012.20
2019-06-07T10:40:00.665Z,1012.14
2019-06-07T10:41:00.761Z,1012.11
2019-06-07T10:42:00.914Z,1012.15
2019-06-07T10:43:01.185Z,1012.11
2019-06-07T10:44:01.035Z,1012.08
2019-06-07T10:45:02.367Z,1012.10
2019-06-07T10:46:01.463Z,1012.08
2019-06-07T10:47:01.705Z,1012.07
2019-06-07T10:48:01.519Z,1012.10
2019-06-07T10:49:01.600Z,1012.07
2019-06-07T10:50:01.648Z,1012.05
2019-06-07T10:51:00.386Z,1012.13
2019-06-07T10:52:03.336Z,1012.18
2019-06-07T10:53:00.398Z,1012.18
2019-06-07T10:54:00.360Z,1012.22
2019-06-07T10:55:00.359Z,1012.24
2019-06-07T10:56:00.331Z,1012.29
2019-06-07T10:57:00.352Z,1012.11
2019-06-07T10:58:00.316Z,1012.32
2019-06-07T10:59:00.323Z,1012.34
2019-06-07T11:00:00.299Z,1012.33
2019-06-07T11:01:00.314Z,1012.37
2019-06-07T11:02:00.333Z,1012.41
2019-06-07T11:03:00.263Z,1012.39
2019-06-07T11:04:00.253Z,1012.39
2019-06-07T11:05:00.309Z,1012.37
2019-06-07T11:06:00.236Z,1012.17
2019-06-07T11:07:00.246Z,1012.36
2019-06-07T11:08:00.770Z,1012.38
2019-06-07T11:09:00.203Z,1012.02
2019-06-07T11:10:07.382Z,1012.02
2019-06-07T11:11:01.195Z,1012.38
2019-06-07T11:12:00.215Z,1012.32
2019-06-07T11:13:00.194Z,1012.33
2019-06-07T11:14:00.160Z,1012.30
2019-06-07T11:15:00.147Z,1012.07
2019-06-07T11:16:00.145Z,1012.30
2019-06-07T11:17:00.289Z,1012.31
2019-06-07T11:18:00.147Z,1012.19
2019-06-07T11:19:00.120Z,1012.16
2019-06-07T11:20:00.137Z,1012.29
2019-06-07T11:21:00.089Z,1012.32
2019-06-07T11:22:00.096Z,1012.25
2019-06-07T11:23:00.090Z,1012.27
2019-06-07T11:24:00.074Z,1012.23
2019-06-07T11:25:00.076Z,1012.23
2019-06-07T11:26:00.040Z,1012.26
2019-06-07T11:27:00.069Z,1012.25
2019-06-07T11:28:00.030Z,1012.23
2019-06-07T11:29:00.027Z,1012.26
2019-06-07T11:30:00.006Z,1012.26
2019-06-07T11:31:00.029Z,1012.27
2019-06-07T11:32:00.105Z,1012.18
2019-06-07T11:33:00.008Z,1012.19
2019-06-07T11:33:59.996Z,1012.25
2019-06-07T11:34:59.977Z,1012.17
2019-06-07T11:35:59.977Z,1012.09
2019-06-07T11:37:00.020Z,1012.14
2019-06-07T11:37:59.999Z,1012.13
2019-06-07T11:38:59.931Z,1012.13
2019-06-07T11:39:59.938Z,1012.08
2019-06-07T11:40:59.918Z,1012.04
2019-06-07T11:41:59.937Z,1012.09
2019-06-07T11:42:59.926Z,1012.14
2019-06-07T11:43:59.896Z,1012.12
2019-06-07T11:44:59.899Z,1012.06
2019-06-07T11:45:59.904Z,1012.10
2019-06-07T11:46:59.899Z,1011.81
2019-06-07T11:48:00.129Z,1012.03
2019-06-07T11:48:59.870Z,1011.79
2019-06-07T11:49:59.848Z,1011.82
2019-06-07T11:50:59.842Z,1012.14
2019-06-07T11:51:59.848Z,1011.99
2019-06-07T11:52:59.814Z,1011.96
2019-06-07T11:53:59.805Z,1011.91
2019-06-07T11:54:59.800Z,1011.89
2019-06-07T11:55:59.816Z,1011.89
2019-06-07T11:56:59.807Z,1011.91
2019-06-07T11:57:59.783Z,1011.91
2019-06-07T11:58:59.799Z,1011.89
2019-06-07T11:59:59.758Z,1011.89
2019-06-07T12:00:59.751Z,1011.88
2019-06-07T12:01:59.773Z,1011.91
2019-06-07T12:02:59.725Z,1011.93
2019-06-07T12:03:59.731Z,1011.62
2019-06-07T12:04:59.717Z,1011.73
2019-06-07T12:05:59.702Z,1011.67
2019-06-07T12:06:59.915Z,1011.97
2019-06-07T12:07:59.706Z,1011.70
2019-06-07T12:08:59.722Z,1011.86
2019-06-07T12:09:59.673Z,1011.73
2019-06-07T12:10:59.666Z,1011.76